createdAt,value
2022-11-21T00:02:17.005Z,46.30
2022-11-21T00:04:49.017Z,46.10
2022-11-21T00:07:20.993Z,52.70
2022-11-21T00:09:52.919Z,39.40
2022-11-21T00:12:24.880Z,40.10
2022-11-21T00:14:56.792Z,39.20
2022-11-21T00:17:28.989Z,44.80
2022-11-21T00:20:00.873Z,43.80
2022-11-21T00:22:33.962Z,45.30
2022-11-21T00:25:07.191Z,46.00
2022-11-21T00:27:39.527Z,46.20
2022-11-21T00:30:14.694Z,52.00
2022-11-21T00:35:17.030Z,45.10
2022-11-21T00:37:50.939Z,50.70
2022-11-21T00:40:22.852Z,49.80
2022-11-21T00:42:54.790Z,49.90
2022-11-21T00:45:26.678Z,51.00
2022-11-21T00:47:58.641Z,52.20
2022-11-21T00:50:30.603Z,50.40
2022-11-21T00:53:02.950Z,60.40
2022-11-21T00:55:37.141Z,47.50
2022-11-21T00:58:09.134Z,45.70
2022-11-21T01:00:41.191Z,47.50
2022-11-21T01:03:13.186Z,42.80
2022-11-21T01:05:45.175Z,43.00
2022-11-21T01:08:17.194Z,42.50
2022-11-21T01:10:49.127Z,41.40
2022-11-21T01:13:21.218Z,41.50
2022-11-21T01:15:53.180Z,42.70
2022-11-21T01:18:25.119Z,41.40
2022-11-21T01:21:00.000Z,43.80
2022-11-21T01:23:32.297Z,45.10
2022-11-21T01:26:09.485Z,43.10
2022-11-21T01:28:41.705Z,44.30
2022-11-21T01:31:17.480Z,45.60
2022-11-21T01:33:49.910Z,42.80
2022-11-21T01:36:24.555Z,41.90
2022-11-21T01:38:58.395Z,46.60
2022-11-21T01:41:33.801Z,43.30
2022-11-21T01:44:11.948Z,42.20
2022-11-21T01:46:43.852Z,45.20
2022-11-21T01:49:19.195Z,44.40
2022-11-21T01:51:55.256Z,44.20
2022-11-21T01:54:30.804Z,44.70
2022-11-21T01:57:07.963Z,43.10
2022-11-21T01:59:43.947Z,41.40
2022-11-21T02:02:19.134Z,39.60
2022-11-21T02:04:51.763Z,41.10
2022-11-21T02:07:25.764Z,45.00
2022-11-21T02:10:00.325Z,41.40
2022-11-21T02:12:39.379Z,44.10
2022-11-21T02:15:13.400Z,40.90
2022-11-21T02:17:45.585Z,40.80
2022-11-21T02:20:19.569Z,46.90
2022-11-21T02:22:59.853Z,44.70
2022-11-21T02:25:35.121Z,44.40
2022-11-21T02:28:10.385Z,46.10
2022-11-21T02:30:44.007Z,47.50
2022-11-21T02:33:16.156Z,43.60
2022-11-21T02:35:56.412Z,44.80
2022-11-21T02:38:32.931Z,44.20
2022-11-21T02:41:15.956Z,45.30
2022-11-21T02:43:52.380Z,43.70
2022-11-21T02:46:24.311Z,45.80
2022-11-21T02:48:57.963Z,44.80
2022-11-21T02:51:29.876Z,43.30
2022-11-21T02:54:01.793Z,44.40
2022-11-21T02:56:34.092Z,44.60
2022-11-21T02:59:06.357Z,43.60
2022-11-21T03:01:38.318Z,41.60
2022-11-21T03:04:10.281Z,42.70
2022-11-21T03:06:42.272Z,42.00
2022-11-21T03:09:14.236Z,41.90
2022-11-21T03:11:46.250Z,45.70
2022-11-21T03:14:18.495Z,47.00
2022-11-21T03:16:50.381Z,50.40
2022-11-21T03:19:22.293Z,51.60
2022-11-21T03:21:54.281Z,61.60
2022-11-21T03:24:26.595Z,64.30
2022-11-21T03:26:59.057Z,53.90
2022-11-21T03:29:30.940Z,59.70
2022-11-21T03:32:02.953Z,57.40
2022-11-21T03:34:34.893Z,53.70
2022-11-21T03:37:07.164Z,48.20
2022-11-21T03:39:39.075Z,50.60
2022-11-21T03:42:10.967Z,47.10
2022-11-21T03:44:43.056Z,48.20
2022-11-21T03:47:14.964Z,50.10
2022-11-21T03:49:46.857Z,47.90
2022-11-21T03:52:19.108Z,48.70
2022-11-21T03:54:51.112Z,49.20
2022-11-21T03:57:23.075Z,48.90
2022-11-21T03:59:54.987Z,43.80
2022-11-21T04:02:27.024Z,43.10
2022-11-21T04:04:58.939Z,43.90
2022-11-21T04:07:31.143Z,50.50
2022-11-21T04:10:03.071Z,45.10
2022-11-21T04:12:35.012Z,45.30
2022-11-21T04:15:13.151Z,49.20
2022-11-21T04:17:46.052Z,45.10
2022-11-21T04:20:19.049Z,51.00
2022-11-21T04:22:50.928Z,49.70
2022-11-21T04:25:22.813Z,50.40
2022-11-21T04:27:56.979Z,57.40
2022-11-21T04:30:29.818Z,54.70
2022-11-21T04:33:01.779Z,52.40
2022-11-21T04:35:33.713Z,60.40
2022-11-21T04:38:05.728Z,77.50
2022-11-21T04:40:37.774Z,73.90
2022-11-21T04:43:10.039Z,63.60
2022-11-21T04:45:41.978Z,67.40
2022-11-21T04:48:14.016Z,66.20
2022-11-21T04:50:46.211Z,71.30
2022-11-21T04:53:18.131Z,73.20
2022-11-21T04:55:50.087Z,59.50
2022-11-21T04:58:22.127Z,50.70
2022-11-21T05:00:54.095Z,55.40
2022-11-21T05:03:26.106Z,49.70
2022-11-21T05:05:57.940Z,52.50
2022-11-21T05:08:29.934Z,53.40
2022-11-21T05:11:19.813Z,60.00
2022-11-21T05:13:53.593Z,56.90
2022-11-21T05:16:25.530Z,47.80
2022-11-21T05:18:57.418Z,44.40
2022-11-21T05:21:29.302Z,52.20
2022-11-21T05:24:01.346Z,56.10
2022-11-21T05:26:33.231Z,62.70
2022-11-21T05:29:05.245Z,58.00
2022-11-21T05:31:37.132Z,58.60
2022-11-21T05:34:09.303Z,57.00
2022-11-21T05:36:41.520Z,52.60
2022-11-21T05:39:13.432Z,52.00
2022-11-21T05:41:45.678Z,49.70
2022-11-21T05:44:17.692Z,53.80
2022-11-21T05:46:49.937Z,62.60
2022-11-21T05:49:21.977Z,70.70
2022-11-21T05:51:53.947Z,126.80
2022-11-21T05:54:26.119Z,170.40
2022-11-21T05:56:58.642Z,191.80
2022-11-21T05:59:30.779Z,193.90
2022-11-21T06:02:20.406Z,170.50
2022-11-21T06:04:52.371Z,134.00
2022-11-21T06:07:24.299Z,83.60
2022-11-21T06:09:56.271Z,77.00
2022-11-21T06:12:28.160Z,68.80
2022-11-21T06:15:00.148Z,66.80
2022-11-21T06:17:31.981Z,64.70
2022-11-21T06:20:03.949Z,57.70
2022-11-21T06:22:35.934Z,56.70
2022-11-21T06:25:08.942Z,56.00
2022-11-21T06:27:40.886Z,52.00
2022-11-21T06:30:16.526Z,54.20
2022-11-21T06:32:52.717Z,55.20
2022-11-21T06:35:24.813Z,52.90
2022-11-21T06:37:57.318Z,57.20
2022-11-21T06:40:29.329Z,63.00
2022-11-21T06:43:01.498Z,63.50
2022-11-21T06:45:33.407Z,71.50
2022-11-21T06:48:05.885Z,88.00
2022-11-21T06:50:38.822Z,82.90
2022-11-21T06:53:10.735Z,71.60
2022-11-21T06:55:42.648Z,77.30
2022-11-21T06:58:14.584Z,74.10
2022-11-21T07:00:48.855Z,80.20
2022-11-21T07:03:21.352Z,80.30
2022-11-21T07:05:58.603Z,77.10
2022-11-21T07:08:31.346Z,70.40
2022-11-21T07:13:59.128Z,63.00
2022-11-21T07:16:32.557Z,68.80
2022-11-21T07:19:04.564Z,72.20
2022-11-21T07:21:36.558Z,90.50
2022-11-21T07:24:09.752Z,68.80
2022-11-21T07:26:41.674Z,56.90
2022-11-21T07:29:13.600Z,71.20
2022-11-21T07:31:45.512Z,81.10
2022-11-21T07:34:17.400Z,59.20
2022-11-21T07:36:49.364Z,52.70
2022-11-21T07:39:21.971Z,60.10
2022-11-21T07:41:54.186Z,59.30
2022-11-21T07:44:26.125Z,71.20
2022-11-21T07:46:58.445Z,68.10
2022-11-21T07:49:30.673Z,60.00
2022-11-21T07:52:02.962Z,66.60
2022-11-21T07:54:34.925Z,74.70
2022-11-21T07:57:06.967Z,82.20
2022-11-21T07:59:38.850Z,77.80
2022-11-21T08:02:19.814Z,66.60
2022-11-21T08:04:52.302Z,66.40
2022-11-21T08:07:25.821Z,74.30
2022-11-21T08:09:57.869Z,80.20
2022-11-21T08:12:30.162Z,62.60
2022-11-21T08:15:02.076Z,60.80
2022-11-21T08:17:34.476Z,58.00
2022-11-21T08:20:09.895Z,60.80
2022-11-21T08:22:43.137Z,63.60
2022-11-21T08:25:15.025Z,62.00
2022-11-21T08:27:46.987Z,56.00
2022-11-21T08:30:19.234Z,62.40
2022-11-21T08:32:51.200Z,58.10
2022-11-21T08:35:23.160Z,59.70
2022-11-21T08:37:59.660Z,72.70
2022-11-21T08:40:33.459Z,101.00
2022-11-21T08:43:07.371Z,87.50
2022-11-21T08:45:40.535Z,78.10
2022-11-21T08:48:15.623Z,67.60
2022-11-21T08:50:47.664Z,62.40
2022-11-21T08:53:19.600Z,58.10
2022-11-21T08:55:51.566Z,68.60
2022-11-21T08:58:23.610Z,62.50
2022-11-21T09:00:55.517Z,64.20
2022-11-21T09:03:31.075Z,60.90
2022-11-21T09:06:03.540Z,60.40
2022-11-21T09:08:35.528Z,63.70
2022-11-21T09:11:09.157Z,59.70
2022-11-21T09:13:41.148Z,64.60
2022-11-21T09:16:32.540Z,63.00
2022-11-21T09:19:04.687Z,68.00
2022-11-21T09:21:36.646Z,60.90
2022-11-21T09:24:09.164Z,64.70
2022-11-21T09:26:41.164Z,59.40
2022-11-21T09:29:15.202Z,56.20
2022-11-21T09:31:47.522Z,110.50
2022-11-21T09:34:20.174Z,54.40
2022-11-21T09:36:53.289Z,53.40
2022-11-21T09:39:25.342Z,58.20
2022-11-21T09:42:10.631Z,53.40
2022-11-21T09:44:59.438Z,57.60
2022-11-21T09:47:33.297Z,56.70
2022-11-21T09:50:08.521Z,58.70
2022-11-21T09:52:47.101Z,60.20
2022-11-21T09:55:26.033Z,56.00
2022-11-21T09:57:59.300Z,65.70
2022-11-21T10:00:31.739Z,63.40
2022-11-21T10:03:04.642Z,57.20
2022-11-21T10:05:43.295Z,61.00
2022-11-21T10:08:23.310Z,60.10
2022-11-21T10:11:09.170Z,57.60
2022-11-21T10:13:57.599Z,62.20
2022-11-21T10:16:42.217Z,64.30
2022-11-21T10:19:43.515Z,62.90
2022-11-21T10:22:32.544Z,61.50
2022-11-21T10:25:13.805Z,63.90
2022-11-21T10:27:53.035Z,55.10
2022-11-21T10:30:25.411Z,62.40
2022-11-21T10:33:00.445Z,65.00
2022-11-21T10:38:20.758Z,65.90
2022-11-21T10:40:56.227Z,63.60
2022-11-21T10:43:53.454Z,66.80
2022-11-21T10:46:25.728Z,61.10
2022-11-21T10:49:00.781Z,68.00
2022-11-21T10:54:34.414Z,72.30
2022-11-21T10:57:14.260Z,68.70
2022-11-21T11:00:01.207Z,69.50
2022-11-21T11:02:33.092Z,76.70
2022-11-21T11:05:28.342Z,283.40
2022-11-21T11:08:06.532Z,112.60
2022-11-21T11:10:40.570Z,83.80
2022-11-21T11:13:51.949Z,71.90
2022-11-21T11:16:25.562Z,81.50
2022-11-21T11:19:03.359Z,59.20
2022-11-21T11:21:45.715Z,53.20
2022-11-21T11:24:29.356Z,56.90
2022-11-21T11:27:03.547Z,55.80
2022-11-21T11:29:50.610Z,68.80
2022-11-21T11:32:23.803Z,71.40
2022-11-21T11:35:01.329Z,73.60
2022-11-21T11:37:41.016Z,66.20
2022-11-21T11:40:27.161Z,67.60
2022-11-21T11:43:49.482Z,57.70
2022-11-21T11:46:56.696Z,67.70
2022-11-21T11:49:59.281Z,66.30
2022-11-21T11:52:34.677Z,63.80
2022-11-21T11:55:15.671Z,67.10
2022-11-21T11:57:49.428Z,51.30
2022-11-21T12:00:31.992Z,58.20
2022-11-21T12:03:09.921Z,55.20
2022-11-21T12:05:55.372Z,55.20
2022-11-21T12:11:52.497Z,59.60
2022-11-21T12:14:57.665Z,55.40
2022-11-21T12:17:35.207Z,64.20
2022-11-21T12:20:17.924Z,62.90
2022-11-21T12:22:53.830Z,55.90
2022-11-21T12:25:30.170Z,67.10
2022-11-21T12:28:03.566Z,62.00
2022-11-21T12:30:58.007Z,58.10
2022-11-21T12:33:32.020Z,81.30
2022-11-21T12:36:18.923Z,78.10
2022-11-21T12:39:36.413Z,70.00
2022-11-21T12:42:34.131Z,62.50
2022-11-21T12:45:24.616Z,55.80
2022-11-21T12:48:30.950Z,55.80
2022-11-21T12:51:53.676Z,50.90
2022-11-21T12:54:56.591Z,51.40
2022-11-21T12:57:41.783Z,49.50
2022-11-21T13:00:22.894Z,56.50
2022-11-21T13:03:24.505Z,58.40
2022-11-21T13:05:59.309Z,56.80
2022-11-21T13:08:33.165Z,57.10
2022-11-21T13:11:29.341Z,65.50
2022-11-21T13:14:09.886Z,61.40
2022-11-21T13:16:48.241Z,63.50
2022-11-21T13:19:25.862Z,67.60
2022-11-21T13:21:58.502Z,65.10
2022-11-21T13:24:58.447Z,68.60
2022-11-21T13:27:38.179Z,62.10
2022-11-21T13:30:33.500Z,65.70
2022-11-21T13:33:25.417Z,71.60
2022-11-21T13:36:00.697Z,59.70
2022-11-21T13:38:33.200Z,63.20
2022-11-21T13:41:22.699Z,78.20
2022-11-21T13:44:38.745Z,67.10
2022-11-21T13:47:32.904Z,69.10
2022-11-21T13:50:10.530Z,67.10
2022-11-21T13:52:50.784Z,58.40
2022-11-21T13:55:42.713Z,73.40
2022-11-21T13:58:29.712Z,88.50
2022-11-21T14:01:19.336Z,75.40
2022-11-21T14:04:27.447Z,66.30
2022-11-21T14:07:23.093Z,65.40
2022-11-21T14:09:56.843Z,74.80
2022-11-21T14:12:35.362Z,66.90
2022-11-21T14:15:23.118Z,57.90
2022-11-21T14:17:57.770Z,67.30
2022-11-21T14:20:32.483Z,80.70
2022-11-21T14:23:06.486Z,91.30
2022-11-21T14:25:48.098Z,70.80
2022-11-21T14:28:25.466Z,68.90
2022-11-21T14:31:02.198Z,58.90
2022-11-21T14:33:36.521Z,77.60
2022-11-21T14:36:13.285Z,83.90
2022-11-21T14:38:53.835Z,58.90
2022-11-21T14:41:36.128Z,72.80
2022-11-21T14:44:16.643Z,68.70
2022-11-21T14:46:49.532Z,64.40
2022-11-21T14:49:30.358Z,59.30
2022-11-21T14:52:13.704Z,58.60
2022-11-21T14:55:29.069Z,56.40
2022-11-21T14:57:45.844Z,57.60
2022-11-21T15:00:58.109Z,93.10
2022-11-21T15:03:22.018Z,67.30
2022-11-21T15:06:05.332Z,72.40
2022-11-21T15:11:39.750Z,58.70
2022-11-21T15:14:23.486Z,58.30
2022-11-21T15:16:57.702Z,55.40
2022-11-21T15:19:32.638Z,52.30
2022-11-21T15:22:05.550Z,50.30
2022-11-21T15:24:43.473Z,54.20
2022-11-21T15:27:34.077Z,53.10
2022-11-21T15:30:29.184Z,81.70
2022-11-21T15:33:12.438Z,68.90
2022-11-21T15:35:47.802Z,68.60
2022-11-21T15:38:24.241Z,56.60
2022-11-21T15:41:31.691Z,49.20
2022-11-21T15:44:23.829Z,50.70
2022-11-21T15:46:55.943Z,65.60
2022-11-21T15:49:34.852Z,134.00
2022-11-21T15:52:13.745Z,66.40
2022-11-21T15:54:47.147Z,119.50
2022-11-21T15:59:53.274Z,59.50
2022-11-21T16:02:25.183Z,83.10
2022-11-21T16:04:57.128Z,78.10
2022-11-21T16:07:29.450Z,75.40
2022-11-21T16:10:01.358Z,76.70
2022-11-21T16:12:33.296Z,60.10
2022-11-21T16:15:05.475Z,66.40
2022-11-21T16:17:39.472Z,66.70
2022-11-21T16:20:13.717Z,88.00
2022-11-21T16:22:47.668Z,74.60
2022-11-21T16:25:20.533Z,63.80
2022-11-21T16:27:52.446Z,46.90
2022-11-21T16:30:24.640Z,49.90
2022-11-21T16:32:56.755Z,46.70
2022-11-21T16:35:28.721Z,63.90
2022-11-21T16:38:00.606Z,62.10
2022-11-21T16:40:32.570Z,54.20
2022-11-21T16:43:11.548Z,53.70
2022-11-21T16:45:43.516Z,72.20
2022-11-21T16:48:15.423Z,58.80
2022-11-21T16:50:47.543Z,62.90
2022-11-21T16:53:19.604Z,56.50
2022-11-21T16:56:00.712Z,64.60
2022-11-21T16:58:33.083Z,53.60
2022-11-21T17:01:12.468Z,55.10
2022-11-21T17:03:47.299Z,50.80
2022-11-21T17:08:51.616Z,52.40
2022-11-21T17:11:26.500Z,50.80
2022-11-21T17:14:00.257Z,60.90
2022-11-21T17:16:33.185Z,57.40
2022-11-21T17:19:05.796Z,79.80
2022-11-21T17:21:37.698Z,69.30
2022-11-21T17:24:09.826Z,67.00
2022-11-21T17:26:41.753Z,68.70
2022-11-21T17:29:13.694Z,86.70
2022-11-21T17:31:46.931Z,61.50
2022-11-21T17:34:19.333Z,60.40
2022-11-21T17:36:51.603Z,72.80
2022-11-21T17:39:29.399Z,79.10
2022-11-21T17:42:02.033Z,103.30
2022-11-21T17:44:34.023Z,96.20
2022-11-21T17:47:06.268Z,96.80
2022-11-21T17:49:38.589Z,65.70
2022-11-21T17:52:10.551Z,50.60
2022-11-21T17:54:42.469Z,61.20
2022-11-21T17:57:14.459Z,75.40
2022-11-21T17:59:47.063Z,73.40
2022-11-21T18:02:21.078Z,63.80
2022-11-21T18:04:53.929Z,52.20
2022-11-21T18:07:25.903Z,66.00
2022-11-21T18:10:14.287Z,62.10
2022-11-21T18:12:51.511Z,61.50
2022-11-21T18:15:23.926Z,78.60
2022-11-21T18:17:55.922Z,90.90
2022-11-21T18:20:27.954Z,103.30
2022-11-21T18:22:59.944Z,65.50
2022-11-21T18:25:31.986Z,61.90
2022-11-21T18:28:03.972Z,60.10
2022-11-21T18:30:35.884Z,55.40
2022-11-21T18:33:07.848Z,51.60
2022-11-21T18:35:39.915Z,56.00
2022-11-21T18:38:40.285Z,77.00
2022-11-21T18:41:08.930Z,60.40
2022-11-21T18:43:41.476Z,191.10
2022-11-21T18:46:15.032Z,167.70
2022-11-21T18:49:02.412Z,109.60
2022-11-21T18:51:37.138Z,77.70
2022-11-21T18:54:10.557Z,89.80
2022-11-21T18:56:42.880Z,86.10
2022-11-21T18:59:14.819Z,90.10
2022-11-21T19:01:47.204Z,63.40
2022-11-21T19:04:19.666Z,64.50
2022-11-21T19:06:51.527Z,52.50
2022-11-21T19:09:26.840Z,77.20
2022-11-21T19:12:01.449Z,83.00
2022-11-21T19:14:33.714Z,58.30
2022-11-21T19:17:05.679Z,49.40
2022-11-21T19:19:37.615Z,48.30
2022-11-21T19:22:09.811Z,54.70
2022-11-21T19:24:41.825Z,59.10
2022-11-21T19:27:13.844Z,56.20
2022-11-21T19:29:45.828Z,69.10
2022-11-21T19:32:17.741Z,65.00
2022-11-21T19:34:49.756Z,65.90
2022-11-21T19:37:21.723Z,66.60
2022-11-21T19:39:53.704Z,62.30
2022-11-21T19:42:25.647Z,57.20
2022-11-21T19:44:58.403Z,65.70
2022-11-21T19:47:30.698Z,64.30
2022-11-21T19:50:02.816Z,86.60
2022-11-21T19:52:34.936Z,71.40
2022-11-21T19:55:09.629Z,78.10
2022-11-21T19:57:41.551Z,74.00
2022-11-21T20:00:15.402Z,149.90
2022-11-21T20:02:47.266Z,139.30
2022-11-21T20:05:19.690Z,138.90
2022-11-21T20:07:51.615Z,118.80
2022-11-21T20:10:24.001Z,83.50
2022-11-21T20:12:56.017Z,85.90
2022-11-21T20:15:28.265Z,65.20
2022-11-21T20:18:00.149Z,113.80
2022-11-21T20:20:32.060Z,81.60
2022-11-21T20:23:04.207Z,66.80
2022-11-21T20:25:36.371Z,67.90
2022-11-21T20:28:11.635Z,65.90
2022-11-21T20:30:43.832Z,66.60
2022-11-21T20:33:15.844Z,59.90
2022-11-21T20:35:47.783Z,67.70
2022-11-21T20:38:24.189Z,72.80
2022-11-21T20:40:56.675Z,91.70
2022-11-21T20:43:52.633Z,84.40
2022-11-21T20:46:21.295Z,77.70
2022-11-21T20:48:53.533Z,81.80
2022-11-21T20:54:17.888Z,78.50
2022-11-21T20:56:49.834Z,79.90
2022-11-21T20:59:21.738Z,77.30
2022-11-21T21:01:53.709Z,84.40
2022-11-21T21:04:25.717Z,131.10
2022-11-21T21:06:57.654Z,70.90
2022-11-21T21:09:30.185Z,69.80
2022-11-21T21:12:02.252Z,85.50
2022-11-21T21:14:34.470Z,67.00
2022-11-21T21:17:06.429Z,63.40
2022-11-21T21:19:38.319Z,80.70
2022-11-21T21:22:10.330Z,154.40
2022-11-21T21:24:42.270Z,132.10
2022-11-21T21:27:14.141Z,101.60
2022-11-21T21:29:46.067Z,61.50
2022-11-21T21:32:18.055Z,64.00
2022-11-21T21:34:50.020Z,71.40
2022-11-21T21:37:22.085Z,85.30
2022-11-21T21:39:54.023Z,157.80
2022-11-21T21:42:25.894Z,239.40
2022-11-21T21:44:57.818Z,151.30
2022-11-21T21:47:30.021Z,72.30
2022-11-21T21:50:01.904Z,90.70
2022-11-21T21:52:33.839Z,82.30
2022-11-21T21:55:06.386Z,88.70
2022-11-21T21:57:43.551Z,114.60
2022-11-21T22:00:18.850Z,78.00
2022-11-21T22:02:50.807Z,109.80
2022-11-21T22:05:22.640Z,93.60
2022-11-21T22:07:54.656Z,79.90
2022-11-21T22:10:40.944Z,71.30
2022-11-21T22:13:16.126Z,107.40
2022-11-21T22:15:48.032Z,77.80
2022-11-21T22:18:19.918Z,74.70
2022-11-21T22:20:51.831Z,83.30
2022-11-21T22:23:24.588Z,72.60
2022-11-21T22:25:59.369Z,73.90
2022-11-21T22:28:31.671Z,83.60
2022-11-21T22:31:03.602Z,68.90
2022-11-21T22:33:37.206Z,64.90
2022-11-21T22:36:13.825Z,58.60
2022-11-21T22:38:46.609Z,64.70
2022-11-21T22:41:20.698Z,65.60
2022-11-21T22:43:54.822Z,60.90
2022-11-21T22:46:28.400Z,74.20
2022-11-21T22:49:00.686Z,71.20
2022-11-21T22:51:32.825Z,67.00
2022-11-21T22:54:04.902Z,64.40
2022-11-21T22:56:37.291Z,71.20
2022-11-21T22:59:09.228Z,62.70
2022-11-21T23:01:41.591Z,53.80
2022-11-21T23:04:17.696Z,53.50
2022-11-21T23:06:50.084Z,60.20
2022-11-21T23:09:22.100Z,48.90
2022-11-21T23:11:53.987Z,49.70
2022-11-21T23:14:26.226Z,56.70
2022-11-21T23:16:58.249Z,61.80
2022-11-21T23:19:30.399Z,61.20
2022-11-21T23:22:02.634Z,68.10
2022-11-21T23:24:35.034Z,74.40
2022-11-21T23:27:07.279Z,63.90
2022-11-21T23:29:39.521Z,56.40
2022-11-21T23:32:11.587Z,52.50
2022-11-21T23:34:43.985Z,51.80
2022-11-21T23:37:15.899Z,50.40
2022-11-21T23:39:47.836Z,60.30
2022-11-21T23:42:19.722Z,86.10
2022-11-21T23:44:51.711Z,56.40
2022-11-21T23:47:23.649Z,59.60
2022-11-21T23:49:55.870Z,55.50
2022-11-21T23:52:27.679Z,52.20
2022-11-21T23:54:59.747Z,51.40
2022-11-21T23:57:31.684Z,55.10
